Map

Track Data

SID SEASON NUMBER BASIN SUBBASIN NAME ISO_TIME NATURE LAT LON WMO_WIND WMO_PRES WMO_AGENCY TRACK_TYPE DIST2LAND LANDFALL IFLAG USA_AGENCY USA_ATCF_ID USA_LAT USA_LON USA_RECORD USA_STATUS USA_WIND USA_PRES USA_SSHS USA_R34_NE USA_R34_SE USA_R34_SW USA_R34_NW USA_R50_NE USA_R50_SE USA_R50_SW USA_R50_NW USA_R64_NE USA_R64_SE USA_R64_SW USA_R64_NW USA_POCI USA_ROCI USA_RMW USA_EYE TOKYO_LAT TOKYO_LON TOKYO_GRADE TOKYO_WIND TOKYO_PRES TOKYO_R50_DIR TOKYO_R50_LONG TOKYO_R50_SHORT TOKYO_R30_DIR TOKYO_R30_LONG TOKYO_R30_SHORT TOKYO_LAND CMA_LAT CMA_LON CMA_CAT CMA_WIND CMA_PRES HKO_LAT HKO_LON HKO_CAT HKO_WIND HKO_PRES NEWDELHI_LAT NEWDELHI_LON NEWDELHI_GRADE NEWDELHI_WIND NEWDELHI_PRES NEWDELHI_CI NEWDELHI_DP NEWDELHI_POCI REUNION_LAT REUNION_LON REUNION_TYPE REUNION_WIND REUNION_PRES REUNION_TNUM REUNION_CI REUNION_RMW REUNION_R34_NE REUNION_R34_SE REUNION_R34_SW REUNION_R34_NW REUNION_R50_NE REUNION_R50_SE REUNION_R50_SW REUNION_R50_NW REUNION_R64_NE REUNION_R64_SE REUNION_R64_SW REUNION_R64_NW BOM_LAT BOM_LON BOM_TYPE BOM_WIND BOM_PRES BOM_TNUM BOM_CI BOM_RMW BOM_R34_NE BOM_R34_SE BOM_R34_SW BOM_R34_NW BOM_R50_NE BOM_R50_SE BOM_R50_SW BOM_R50_NW BOM_R64_NE BOM_R64_SE BOM_R64_SW BOM_R64_NW BOM_ROCI BOM_POCI BOM_EYE BOM_POS_METHOD BOM_PRES_METHOD NADI_LAT NADI_LON NADI_CAT NADI_WIND NADI_PRES WELLINGTON_LAT WELLINGTON_LON WELLINGTON_WIND WELLINGTON_PRES DS824_LAT DS824_LON DS824_STAGE DS824_WIND DS824_PRES TD9636_LAT TD9636_LON TD9636_STAGE TD9636_WIND TD9636_PRES TD9635_LAT TD9635_LON TD9635_WIND TD9635_PRES TD9635_ROCI NEUMANN_LAT NEUMANN_LON NEUMANN_CLASS NEUMANN_WIND NEUMANN_PRES MLC_LAT MLC_LON MLC_CLASS MLC_WIND MLC_PRES USA_GUST BOM_GUST BOM_GUST_PER REUNION_GUST REUNION_GUST_PER USA_SEAHGT USA_SEARAD_NE USA_SEARAD_SE USA_SEARAD_SW USA_SEARAD_NW STORM_SPEED STORM_DIR
1988257N16252 1988 77 EP MM NOT_NAMED 1988-09-12 18:00:00 TS 16.3000 -108.200 30 hurdat_epa main 484 484 O_____________ hurdat_epa EP191988 16.3000 -108.200 TD 30 -1 7 279
1988257N16252 1988 77 EP MM NOT_NAMED 1988-09-12 21:00:00 TS 16.3523 -108.555 main 507 507 P_____________ EP191988 16.3523 -108.555 TD 30 -1 8 285
1988257N16252 1988 77 EP MM NOT_NAMED 1988-09-13 00:00:00 TS 16.5000 -109.000 30 hurdat_epa main 530 530 O_____________ hurdat_epa EP191988 16.5000 -109.000 TD 30 -1 11 294
1988257N16252 1988 77 EP MM NOT_NAMED 1988-09-13 03:00:00 TS 16.7803 -109.559 main 558 558 P_____________ EP191988 16.7803 -109.559 TD 30 -1 11 298
1988257N16252 1988 77 EP MM NOT_NAMED 1988-09-13 06:00:00 TS 17.0000 -110.000 30 hurdat_epa main 580 580 O_____________ hurdat_epa EP191988 17.0000 -110.000 TD 30 -1 5 288
1988257N16252 1988 77 EP MM NOT_NAMED 1988-09-13 09:00:00 TS 16.9373 -110.075 main 595 586 P_____________ EP191988 16.9373 -110.075 TD 30 -1 2 172
1988257N16252 1988 77 EP MM NOT_NAMED 1988-09-13 12:00:00 TS 16.8000 -110.000 30 hurdat_epa main 592 592 O_____________ hurdat_epa EP191988 16.8000 -110.000 TD 30 -1 2 155
1988257N16252 1988 77 EP MM NOT_NAMED 1988-09-13 15:00:00 TS 16.7850 -110.000 main 592 592 P_____________ EP191988 16.7850 -110.000 TD 30 -1 0 0
1988257N16252 1988 77 EP MM NOT_NAMED 1988-09-13 18:00:00 TS 16.8000 -110.000 30 hurdat_epa main 592 592 O_____________ hurdat_epa EP191988 16.8000 -110.000 TD 30 -1 0 0
1988257N16252 1988 77 EP MM NOT_NAMED 1988-09-13 21:00:00 TS 16.8075 -110.015 main 592 592 P_____________ EP191988 16.8075 -110.015 TD 30 -1 0 0
1988257N16252 1988 77 EP MM NOT_NAMED 1988-09-14 00:00:00 TS 16.8000 -110.000 30 hurdat_epa main 592 584 O_____________ hurdat_epa EP191988 16.8000 -110.000 TD 30 -1 1 117
1988257N16252 1988 77 EP MM NOT_NAMED 1988-09-14 03:00:00 TS 16.7425 -109.885 main 590 581 P_____________ EP191988 16.7425 -109.885 TD 30 -1 2 118
1988257N16252 1988 77 EP MM NOT_NAMED 1988-09-14 06:00:00 TS 16.7000 -109.800 30 hurdat_epa main 581 581 O_____________ hurdat_epa EP191988 16.7000 -109.800 TD 30 -1 0 0
1988257N16252 1988 77 EP MM NOT_NAMED 1988-09-14 09:00:00 TS 16.7275 -109.885 main 590 584 P_____________ EP191988 16.7275 -109.885 TD 27 -1 2 298
1988257N16252 1988 77 EP MM NOT_NAMED 1988-09-14 12:00:00 TS 16.8000 -110.000 25 hurdat_epa main 592 586 O_____________ hurdat_epa EP191988 16.8000 -110.000 TD 25 -1 2 325
1988257N16252 1988 77 EP MM NOT_NAMED 1988-09-14 15:00:00 TS 16.9075 -110.015 main 586 580 P_____________ EP191988 16.9075 -110.015 TD 25 -1 2 8
1988257N16252 1988 77 EP MM NOT_NAMED 1988-09-14 18:00:00 TS 17.0000 -110.000 25 hurdat_epa main 580 571 O_____________ hurdat_epa EP191988 17.0000 -110.000 TD 25 -1 1 31
1988257N16252 1988 77 EP MM NOT_NAMED 1988-09-14 21:00:00 TS 17.0299 -109.940 main 571 571 P_____________ EP191988 17.0299 -109.940 TD 25 -1 0 0
1988257N16252 1988 77 EP MM NOT_NAMED 1988-09-15 00:00:00 TS 17.0000 -110.000 25 hurdat_epa main 580 580 O_____________ hurdat_epa EP191988 17.0000 -110.000 TD 25 -1 5 252
1988257N16252 1988 77 EP MM NOT_NAMED 1988-09-15 03:00:00 TS 16.8929 -110.393 main 622 622 P_____________ EP191988 16.8929 -110.393 TD 25 -1 8 255
1988257N16252 1988 77 EP MM NOT_NAMED 1988-09-15 06:00:00 TS 16.8000 -110.800 25 hurdat_epa main 663 663 O_____________ hurdat_epa EP191988 16.8000 -110.800 TD 25 -1 5 262
1988257N16252 1988 77 EP MM NOT_NAMED 1988-09-15 09:00:00 TS 16.8274 -110.902 main 672 666 P_____________ EP191988 16.8274 -110.902 TD 25 -1 1 317
1988257N16252 1988 77 EP MM NOT_NAMED 1988-09-15 12:00:00 TS 16.9000 -110.900 25 hurdat_epa main 666 660 O_____________ hurdat_epa EP191988 16.9000 -110.900 TD 25 -1 1 342
1988257N16252 1988 77 EP MM NOT_NAMED 1988-09-15 15:00:00 TS 16.9576 -110.933 main 660 660 P_____________ EP191988 16.9576 -110.933 TD 25 -1 1 317
1988257N16252 1988 77 EP MM NOT_NAMED 1988-09-15 18:00:00 TS 17.0000 -111.000 25 hurdat_epa main 668 O_____________ hurdat_epa EP191988 17.0000 -111.000 TD 25 -1 2 302

About IBTrACS Database

This database is a web-friendly format of International Best Track Archive for Climate Stewardship (IBTrACS), a global best track data archive curated by NOAA dating back to 1842.

Updated: 2021-12-03